createdAt,value
2022-12-18T00:05:01.910Z,102810.16
2022-12-18T00:10:05.444Z,102815.94
2022-12-18T00:15:09.992Z,102809.19
2022-12-18T00:20:12.866Z,102814.53
2022-12-18T00:25:15.611Z,102831.06
2022-12-18T00:30:19.827Z,102821.53
2022-12-18T00:35:22.364Z,102820.59
2022-12-18T00:40:24.867Z,102822.44
2022-12-18T00:45:30.691Z,102820.84
2022-12-18T00:50:33.213Z,102828.03
2022-12-18T00:55:36.483Z,102830.84
2022-12-18T01:00:40.471Z,102835.25
2022-12-18T01:05:43.806Z,102840.63
2022-12-18T01:10:46.382Z,102834.13
2022-12-18T01:15:52.049Z,102828.31
2022-12-18T01:20:54.553Z,102826.94
2022-12-18T01:25:57.059Z,102848.56
2022-12-18T01:31:11.574Z,102839.97
2022-12-18T01:36:18.596Z,102837.66
2022-12-18T01:41:23.274Z,102843.88
2022-12-18T01:46:28.800Z,102845.97
2022-12-18T01:51:32.417Z,102847.84
2022-12-18T01:56:34.920Z,102853.19
2022-12-18T02:01:40.022Z,102849.28
2022-12-18T02:06:43.837Z,102840.88
2022-12-18T02:11:52.563Z,102847.63
2022-12-18T02:17:02.364Z,102848.56
2022-12-18T02:22:16.479Z,102842.31
2022-12-18T02:27:20.793Z,102837.44
2022-12-18T02:32:28.627Z,102824.19
2022-12-18T02:37:33.716Z,102826.53
2022-12-18T02:42:37.500Z,102840.22
2022-12-18T02:47:45.447Z,102860.25
2022-12-18T02:52:57.686Z,102837.91
2022-12-18T02:58:07.184Z,102840.00
2022-12-18T03:03:17.917Z,102825.78
2022-12-18T03:08:24.144Z,102833.22
2022-12-18T03:13:32.655Z,102843.22
2022-12-18T03:18:39.729Z,102855.06
2022-12-18T03:23:46.229Z,102862.25
2022-12-18T03:28:53.228Z,102863.63
2022-12-18T03:33:59.688Z,102878.06
2022-12-18T03:39:02.255Z,102879.41
2022-12-18T03:44:12.793Z,102879.91
2022-12-18T03:49:23.394Z,102891.72
2022-12-18T03:54:28.954Z,102891.28
2022-12-18T03:59:34.814Z,102900.34
2022-12-18T04:04:38.862Z,102909.38
2022-12-18T04:09:43.655Z,102909.38
2022-12-18T04:14:47.491Z,102909.38
2022-12-18T04:19:50.028Z,102908.47
2022-12-18T04:24:52.480Z,102915.22
2022-12-18T04:29:56.261Z,102913.53
2022-12-18T04:34:58.709Z,102926.75
2022-12-18T04:40:01.157Z,102924.63
2022-12-18T04:45:05.845Z,102921.84
2022-12-18T04:50:09.067Z,102912.09
2022-12-18T04:55:11.552Z,102910.66
2022-12-18T05:00:16.466Z,102901.09
2022-12-18T05:05:19.142Z,102904.13
2022-12-18T05:10:21.624Z,102906.69
2022-12-18T05:15:25.710Z,102911.56
2022-12-18T05:20:29.581Z,102919.22
2022-12-18T05:25:32.094Z,102915.03
2022-12-18T05:30:36.171Z,102933.84
2022-12-18T05:35:38.644Z,102954.09
2022-12-18T05:40:43.691Z,102955.75
2022-12-18T05:45:47.683Z,102975.19
2022-12-18T05:50:51.953Z,102969.09
2022-12-18T05:55:54.404Z,102961.38
2022-12-18T06:00:58.552Z,102948.34
2022-12-18T06:06:01.015Z,102934.41
2022-12-18T06:11:03.464Z,102943.00
2022-12-18T06:16:08.014Z,102950.69
2022-12-18T06:21:10.676Z,102948.59
2022-12-18T06:26:14.752Z,102945.13
2022-12-18T06:31:18.592Z,102963.69
2022-12-18T06:36:21.851Z,102972.31
2022-12-18T06:41:24.362Z,102981.38
2022-12-18T06:46:28.299Z,102975.59
2022-12-18T06:51:30.893Z,102980.47
2022-12-18T06:56:33.525Z,102973.91
2022-12-18T07:01:37.617Z,102969.94
2022-12-18T07:06:40.128Z,102960.59
2022-12-18T07:11:42.638Z,102979.69
2022-12-18T07:16:46.485Z,102980.84
2022-12-18T07:21:48.942Z,102979.22
2022-12-18T07:26:51.509Z,102991.06
2022-12-18T07:31:55.378Z,103005.00
2022-12-18T07:36:57.881Z,102992.94
2022-12-18T07:42:18.645Z,103005.00
2022-12-18T07:47:22.634Z,103014.56
2022-12-18T07:52:26.326Z,103018.31
2022-12-18T08:02:52.818Z,103028.78
2022-12-18T08:07:56.982Z,103036.94
2022-12-18T08:13:04.618Z,103026.28
2022-12-18T08:18:13.889Z,103030.25
2022-12-18T08:23:16.832Z,103038.91
2022-12-18T08:28:19.511Z,103037.09
2022-12-18T08:33:23.294Z,103035.28
2022-12-18T08:38:25.765Z,103036.25
2022-12-18T08:43:46.317Z,103033.31
2022-12-18T08:48:52.774Z,103045.91
2022-12-18T08:53:55.246Z,103049.28
2022-12-18T08:58:58.322Z,103051.66
2022-12-18T09:04:02.160Z,103050.78
2022-12-18T09:09:05.776Z,103044.56
2022-12-18T09:14:10.070Z,103053.00
2022-12-18T09:19:14.873Z,103053.53
2022-12-18T09:24:18.238Z,103052.41
2022-12-18T09:29:22.074Z,103051.22
2022-12-18T09:34:57.449Z,103056.38
2022-12-18T09:40:02.174Z,103060.66
2022-12-18T09:45:07.379Z,103052.56
2022-12-18T09:50:26.258Z,103059.53
2022-12-18T09:55:38.687Z,103053.09
2022-12-18T10:00:42.271Z,103041.22
2022-12-18T10:06:00.772Z,103039.81
2022-12-18T10:11:16.980Z,103039.38
2022-12-18T10:16:27.122Z,103033.34
2022-12-18T10:21:40.333Z,103026.16
2022-12-18T10:26:48.710Z,103040.38
2022-12-18T10:31:51.754Z,103043.88
2022-12-18T10:43:08.890Z,103035.97
2022-12-18T10:48:23.261Z,103039.97
2022-12-18T10:53:31.199Z,103041.81
2022-12-18T10:58:38.238Z,103040.19
2022-12-18T11:10:44.916Z,103036.25
2022-12-18T11:28:30.469Z,103047.19
2022-12-18T11:34:05.142Z,103053.50
2022-12-18T11:39:20.073Z,103057.25
2022-12-18T11:50:18.133Z,103051.84
2022-12-18T11:55:31.600Z,103053.50
2022-12-18T12:00:44.901Z,103044.59
2022-12-18T12:06:03.498Z,103041.56
2022-12-18T12:11:41.736Z,103042.47
2022-12-18T12:24:16.951Z,103022.38
2022-12-18T12:35:56.359Z,103015.53
2022-12-18T12:41:07.914Z,103011.53
2022-12-18T13:06:25.054Z,103014.53
2022-12-18T13:12:02.932Z,103000.03
2022-12-18T13:36:48.855Z,102989.97
2022-12-18T13:48:21.707Z,102955.63
2022-12-18T13:53:43.041Z,102934.38
2022-12-18T13:58:47.064Z,102922.25
2022-12-18T16:16:47.990Z,102915.63
2022-12-18T18:35:56.037Z,102790.47
2022-12-18T18:40:59.952Z,102778.31
2022-12-18T18:51:20.165Z,102790.66
2022-12-18T18:56:56.457Z,102787.84
2022-12-18T19:01:50.293Z,102775.69
2022-12-18T19:06:54.313Z,102768.66
2022-12-18T19:12:14.386Z,102763.75
2022-12-18T19:17:16.985Z,102763.75
2022-12-18T19:22:20.992Z,102763.28
2022-12-18T19:27:23.740Z,102742.50
2022-12-18T19:32:26.428Z,102734.09
2022-12-18T19:37:30.303Z,102736.16
2022-12-18T19:42:35.491Z,102733.13
2022-12-18T19:47:38.338Z,102735.00
2022-12-18T19:52:42.214Z,102746.91
2022-12-18T19:57:44.954Z,102749.47
2022-12-18T20:02:47.612Z,102734.78
2022-12-18T20:07:51.840Z,102728.69
2022-12-18T20:12:54.732Z,102730.34
2022-12-18T20:17:58.010Z,102727.53
2022-12-18T20:23:02.999Z,102721.50
2022-12-18T20:28:06.155Z,102703.31
2022-12-18T20:33:08.724Z,102707.25
2022-12-18T20:38:12.638Z,102698.16
2022-12-18T20:43:17.518Z,102679.66
2022-12-18T20:48:25.053Z,102681.06
2022-12-18T20:53:30.563Z,102678.22
2022-12-18T20:58:33.108Z,102681.25
2022-12-18T21:03:35.823Z,102669.75
2022-12-18T21:08:40.190Z,102670.47
2022-12-18T21:13:42.717Z,102664.31
2022-12-18T21:18:45.189Z,102653.09
2022-12-18T21:23:49.302Z,102637.38
2022-12-18T21:28:55.020Z,102636.41
2022-12-18T21:34:01.869Z,102614.44
2022-12-18T21:39:06.333Z,102609.97
2022-12-18T21:44:09.721Z,102601.28
2022-12-18T21:49:15.044Z,102591.66
2022-12-18T21:54:19.462Z,102573.91
2022-12-18T21:59:23.392Z,102564.97
2022-12-18T22:04:26.408Z,102563.78
2022-12-18T22:09:30.806Z,102547.16
2022-12-18T22:14:33.612Z,102544.09
2022-12-18T22:19:42.672Z,102529.81
2022-12-18T22:24:46.955Z,102506.88
2022-12-18T22:30:08.188Z,102513.19
2022-12-18T22:35:15.742Z,102501.47
2022-12-18T22:40:24.648Z,102491.41
2022-12-18T22:45:28.527Z,102495.84
2022-12-18T22:50:33.577Z,102482.97
2022-12-18T22:55:37.389Z,102469.44
2022-12-18T23:00:41.094Z,102462.84
2022-12-18T23:05:43.577Z,102447.22
2022-12-18T23:10:47.400Z,102438.16
2022-12-18T23:15:50.035Z,102437.22
2022-12-18T23:20:52.691Z,102422.00
2022-12-18T23:26:02.996Z,102415.03
2022-12-18T23:31:07.309Z,102395.41
2022-12-18T23:36:10.367Z,102395.81
2022-12-18T23:41:16.656Z,102364.19
2022-12-18T23:46:20.835Z,102353.59
2022-12-18T23:51:25.552Z,102321.53
2022-12-18T23:56:31.121Z,102320.72
